createdAt,value
2018-09-11T00:01:31.274Z,66.02
2018-09-11T00:04:00.103Z,66.00
2018-09-11T00:06:28.765Z,66.12
2018-09-11T00:08:57.441Z,65.12
2018-09-11T00:11:26.274Z,65.38
2018-09-11T00:13:54.949Z,65.58
2018-09-11T00:16:23.844Z,65.40
2018-09-11T00:18:52.511Z,65.05
2018-09-11T00:21:21.307Z,64.68
2018-09-11T00:23:49.965Z,65.74
2018-09-11T00:26:18.797Z,65.55
2018-09-11T00:28:48.009Z,65.92
2018-09-11T00:31:16.729Z,66.50
2018-09-11T00:33:45.447Z,66.41
2018-09-11T00:36:14.139Z,65.49
2018-09-11T00:38:43.745Z,64.63
2018-09-11T00:41:13.386Z,64.55
2018-09-11T00:43:42.928Z,64.46
2018-09-11T00:46:11.651Z,64.25
2018-09-11T00:48:40.346Z,64.35
2018-09-11T00:51:09.110Z,64.46
2018-09-11T00:53:38.125Z,64.68
2018-09-11T00:56:06.897Z,65.44
2018-09-11T00:58:35.655Z,65.58
2018-09-11T01:01:04.411Z,65.48
2018-09-11T01:03:33.093Z,65.75
2018-09-11T01:06:02.102Z,64.79
2018-09-11T01:08:30.970Z,63.82
2018-09-11T01:10:59.740Z,63.80
2018-09-11T01:13:28.453Z,63.80
2018-09-11T01:15:57.114Z,63.27
2018-09-11T01:18:25.793Z,63.16
2018-09-11T01:20:54.561Z,63.19
2018-09-11T01:23:23.249Z,62.77
2018-09-11T01:25:51.962Z,62.68
2018-09-11T01:28:20.686Z,62.94
2018-09-11T01:30:49.486Z,62.86
2018-09-11T01:33:18.188Z,62.77
2018-09-11T01:35:46.859Z,62.90
2018-09-11T01:38:15.619Z,62.84
2018-09-11T01:40:44.376Z,63.06
2018-09-11T01:43:13.306Z,62.99
2018-09-11T01:45:42.060Z,63.33
2018-09-11T01:48:10.763Z,63.07
2018-09-11T01:50:39.469Z,63.82
2018-09-11T01:53:08.198Z,64.26
2018-09-11T01:55:36.889Z,64.49
2018-09-11T01:58:06.106Z,64.50
2018-09-11T02:00:34.753Z,64.67
2018-09-11T02:03:03.435Z,64.60
2018-09-11T02:05:32.245Z,64.60
2018-09-11T02:08:01.357Z,64.86
2018-09-11T02:10:30.029Z,65.45
2018-09-11T02:12:58.673Z,66.23
2018-09-11T02:15:27.380Z,66.56
2018-09-11T02:17:56.090Z,67.11
2018-09-11T02:20:25.238Z,67.21
2018-09-11T02:22:54.009Z,67.59
2018-09-11T02:25:22.714Z,68.08
2018-09-11T02:27:52.206Z,68.69
2018-09-11T02:30:21.394Z,68.72
2018-09-11T02:32:50.247Z,69.24
2018-09-11T02:35:18.919Z,69.44
2018-09-11T02:37:47.646Z,70.14
2018-09-11T02:40:16.674Z,70.09
2018-09-11T02:42:45.338Z,70.42
2018-09-11T02:45:14.019Z,70.15
2018-09-11T02:47:42.643Z,69.99
2018-09-11T02:50:11.373Z,70.45
2018-09-11T02:52:40.097Z,70.39
2018-09-11T02:55:09.433Z,70.83
2018-09-11T02:57:38.190Z,71.16
2018-09-11T03:00:07.617Z,70.91
2018-09-11T03:02:36.413Z,71.12
2018-09-11T03:05:05.208Z,71.14
2018-09-11T03:07:33.949Z,71.47
2018-09-11T03:10:02.854Z,71.34
2018-09-11T03:12:31.659Z,71.20
2018-09-11T03:15:00.301Z,71.44
2018-09-11T03:17:29.023Z,71.34
2018-09-11T03:19:57.913Z,71.19
2018-09-11T03:22:26.803Z,71.19
2018-09-11T03:24:55.670Z,71.06
2018-09-11T03:27:24.390Z,70.94
2018-09-11T03:29:53.142Z,71.25
2018-09-11T03:32:21.810Z,71.38
2018-09-11T03:34:50.949Z,71.03
2018-09-11T03:37:19.951Z,71.21
2018-09-11T03:39:48.929Z,71.57
2018-09-11T03:42:17.732Z,71.74
2018-09-11T03:44:46.397Z,71.67
2018-09-11T03:47:15.141Z,71.94
2018-09-11T03:49:43.921Z,71.61
2018-09-11T03:52:12.602Z,71.58
2018-09-11T03:54:41.368Z,70.98
2018-09-11T03:57:10.003Z,70.84
2018-09-11T03:59:38.825Z,70.46
2018-09-11T04:02:07.532Z,70.32
2018-09-11T04:04:36.544Z,70.64
2018-09-11T04:07:05.430Z,70.54
2018-09-11T04:09:34.157Z,70.02
2018-09-11T04:12:03.285Z,69.81
2018-09-11T04:14:32.145Z,70.05
2018-09-11T04:17:00.913Z,70.79
2018-09-11T04:19:29.636Z,71.01
2018-09-11T04:21:58.373Z,70.89
2018-09-11T04:24:27.156Z,71.14
2018-09-11T04:26:55.864Z,71.17
2018-09-11T04:29:31.161Z,71.50
2018-09-11T04:31:59.832Z,71.49
2018-09-11T04:34:28.567Z,71.90
2018-09-11T04:36:57.234Z,71.89
2018-09-11T04:39:26.021Z,71.94
2018-09-11T04:41:54.913Z,71.97
2018-09-11T04:44:23.700Z,71.39
2018-09-11T04:46:52.384Z,71.28
2018-09-11T04:49:21.284Z,71.23
2018-09-11T04:51:50.307Z,70.87
2018-09-11T04:54:19.166Z,71.22
2018-09-11T04:56:47.979Z,71.75
2018-09-11T04:59:16.707Z,72.12
2018-09-11T05:01:45.390Z,71.86
2018-09-11T05:04:14.133Z,72.09
2018-09-11T05:06:42.958Z,71.94
2018-09-11T05:09:12.586Z,72.09
2018-09-11T05:11:41.245Z,71.59
2018-09-11T05:14:10.089Z,71.68
2018-09-11T05:16:39.057Z,71.82
2018-09-11T05:19:07.875Z,71.06
2018-09-11T05:21:36.628Z,70.67
2018-09-11T05:24:05.366Z,70.56
2018-09-11T05:26:34.144Z,70.19
2018-09-11T05:29:02.995Z,70.04
2018-09-11T05:31:32.223Z,70.06
2018-09-11T05:34:01.115Z,69.90
2018-09-11T05:36:29.791Z,69.66
2018-09-11T05:38:58.510Z,69.84
2018-09-11T05:41:27.176Z,69.80
2018-09-11T05:43:56.058Z,69.79
2018-09-11T05:46:24.906Z,69.48
2018-09-11T05:48:53.619Z,68.69
2018-09-11T05:51:22.458Z,68.78
2018-09-11T05:53:51.330Z,68.76
2018-09-11T05:56:20.830Z,68.71
2018-09-11T05:58:49.734Z,68.67
2018-09-11T06:01:18.614Z,68.08
2018-09-11T06:03:47.341Z,68.42
2018-09-11T06:06:16.273Z,67.98
2018-09-11T06:08:45.244Z,68.00
2018-09-11T06:11:13.934Z,67.87
2018-09-11T06:13:42.577Z,67.46
2018-09-11T06:16:11.712Z,67.24
2018-09-11T06:18:40.546Z,67.34
2018-09-11T06:21:09.290Z,67.04
2018-09-11T06:23:38.332Z,67.47
2018-09-11T06:26:08.310Z,67.20
2018-09-11T06:28:37.105Z,67.30
2018-09-11T06:31:06.318Z,66.62
2018-09-11T06:33:35.109Z,66.10
2018-09-11T06:36:04.014Z,66.13
2018-09-11T06:38:32.734Z,65.59
2018-09-11T06:41:01.399Z,65.41
2018-09-11T06:43:30.686Z,65.18
2018-09-11T06:45:59.754Z,65.32
2018-09-11T06:48:28.389Z,66.05
2018-09-11T06:50:57.078Z,65.43
2018-09-11T06:53:27.045Z,64.86
2018-09-11T06:55:55.716Z,65.07
2018-09-11T06:58:24.360Z,64.88
2018-09-11T07:00:53.363Z,64.70
2018-09-11T07:03:22.050Z,64.68
2018-09-11T07:05:50.778Z,64.82
2018-09-11T07:08:19.652Z,64.31
2018-09-11T07:10:48.386Z,64.27
2018-09-11T07:13:17.027Z,64.19
2018-09-11T07:15:45.692Z,64.37
2018-09-11T07:18:14.557Z,64.27
2018-09-11T07:20:43.270Z,64.62
2018-09-11T07:23:12.038Z,64.26
2018-09-11T07:25:40.785Z,64.00
2018-09-11T07:28:09.431Z,63.70
2018-09-11T07:30:38.292Z,63.82
2018-09-11T07:33:07.178Z,63.27
2018-09-11T07:35:35.966Z,63.36
2018-09-11T07:38:04.740Z,62.95
2018-09-11T07:40:33.536Z,60.86
2018-09-11T07:43:02.300Z,61.03
2018-09-11T07:45:31.266Z,61.45
2018-09-11T07:48:00.011Z,60.78
2018-09-11T07:50:28.763Z,60.66
2018-09-11T07:52:57.511Z,60.64
2018-09-11T07:55:26.249Z,59.96
2018-09-11T07:57:55.094Z,59.79
2018-09-11T08:00:24.133Z,59.44
2018-09-11T08:02:52.923Z,58.65
2018-09-11T08:05:21.691Z,58.68
2018-09-11T08:07:50.287Z,57.95
2018-09-11T08:10:19.118Z,56.33
2018-09-11T08:12:48.215Z,55.94
2018-09-11T08:15:17.172Z,55.92
2018-09-11T08:17:45.885Z,55.35
2018-09-11T08:20:14.786Z,54.92
2018-09-11T08:22:43.678Z,55.76
2018-09-11T08:25:12.466Z,55.13
2018-09-11T08:27:41.296Z,54.38
2018-09-11T08:30:10.023Z,54.78
2018-09-11T08:32:38.868Z,54.02
2018-09-11T08:35:07.949Z,54.01
2018-09-11T08:37:36.619Z,53.85
2018-09-11T08:40:06.010Z,53.57
2018-09-11T08:42:34.794Z,53.12
2018-09-11T08:45:03.653Z,52.33
2018-09-11T08:47:32.478Z,53.18
2018-09-11T08:50:01.353Z,52.42
2018-09-11T08:52:30.155Z,52.27
2018-09-11T08:54:58.866Z,51.74
2018-09-11T08:57:27.710Z,52.08
2018-09-11T08:59:56.414Z,51.02
2018-09-11T09:02:25.121Z,50.77
2018-09-11T09:04:54.018Z,50.59
2018-09-11T09:07:22.774Z,49.50
2018-09-11T09:09:53.384Z,49.72
2018-09-11T09:12:22.316Z,49.46
2018-09-11T09:14:51.115Z,49.71
2018-09-11T09:17:19.881Z,49.70
2018-09-11T09:19:48.651Z,48.98
2018-09-11T09:22:17.793Z,49.41
2018-09-11T09:24:46.591Z,48.58
2018-09-11T09:27:15.351Z,48.42
2018-09-11T09:29:44.108Z,48.97
2018-09-11T09:32:12.938Z,48.44
2018-09-11T09:34:41.810Z,48.79
2018-09-11T09:37:10.999Z,48.15
2018-09-11T09:39:40.029Z,47.96
2018-09-11T09:42:08.770Z,46.96
2018-09-11T09:44:37.726Z,46.71
2018-09-11T09:47:06.497Z,46.27
2018-09-11T09:49:35.295Z,46.49
2018-09-11T09:52:04.068Z,46.75
2018-09-11T09:54:32.693Z,46.76
2018-09-11T09:57:01.386Z,46.60
2018-09-11T09:59:30.023Z,46.27
2018-09-11T10:02:03.225Z,46.27
2018-09-11T10:04:32.822Z,46.09
2018-09-11T10:07:01.832Z,46.10
2018-09-11T10:09:30.957Z,45.56
2018-09-11T10:11:59.669Z,45.96
2018-09-11T10:14:28.559Z,46.11
2018-09-11T10:16:57.198Z,45.64
2018-09-11T10:19:26.261Z,45.57
2018-09-11T10:21:55.051Z,44.94
2018-09-11T10:24:23.959Z,44.89
2018-09-11T10:26:52.864Z,45.37
2018-09-11T10:29:22.053Z,44.09
2018-09-11T10:31:50.709Z,44.38
2018-09-11T10:34:19.491Z,44.50
2018-09-11T10:36:48.205Z,43.05
2018-09-11T10:39:17.059Z,43.29
2018-09-11T10:41:45.800Z,42.45
2018-09-11T10:44:14.540Z,42.74
2018-09-11T10:46:43.491Z,42.82
2018-09-11T10:49:12.202Z,43.10
2018-09-11T10:51:40.972Z,42.61
2018-09-11T10:54:09.714Z,42.53
2018-09-11T10:56:38.458Z,42.09
2018-09-11T10:59:07.216Z,41.37
2018-09-11T11:01:35.950Z,41.32
2018-09-11T11:04:04.999Z,42.45
2018-09-11T11:06:33.670Z,41.80
2018-09-11T11:09:02.373Z,42.25
2018-09-11T11:11:31.598Z,42.57
2018-09-11T11:14:00.350Z,41.77
2018-09-11T11:16:28.999Z,42.05
2018-09-11T11:18:57.834Z,42.15
2018-09-11T11:21:26.593Z,41.64
2018-09-11T11:23:55.466Z,41.45
2018-09-11T11:26:24.130Z,40.63
2018-09-11T11:28:52.857Z,39.67
2018-09-11T11:31:21.713Z,40.38
2018-09-11T11:33:50.509Z,40.10
2018-09-11T11:36:19.863Z,39.81
2018-09-11T11:38:48.356Z,40.22
2018-09-11T11:41:17.410Z,39.84
2018-09-11T11:43:46.543Z,39.01
2018-09-11T11:46:15.203Z,37.81
2018-09-11T11:48:52.988Z,37.50
2018-09-11T11:51:21.947Z,37.27
2018-09-11T11:53:50.637Z,37.07
2018-09-11T11:56:19.498Z,37.27
2018-09-11T11:58:48.254Z,36.94
2018-09-11T12:01:16.996Z,35.21
2018-09-11T12:03:45.854Z,34.09
2018-09-11T12:06:15.168Z,33.10
2018-09-11T12:08:44.114Z,34.08
2018-09-11T12:11:13.101Z,32.91
2018-09-11T12:13:41.904Z,31.23
2018-09-11T12:16:10.634Z,29.37
2018-09-11T12:18:39.272Z,29.52
2018-09-11T12:21:08.406Z,28.62
2018-09-11T12:23:37.250Z,29.44
2018-09-11T12:26:06.150Z,27.27
2018-09-11T12:28:34.789Z,28.16
2018-09-11T12:31:03.604Z,26.28
2018-09-11T12:33:32.458Z,27.89
2018-09-11T12:36:01.109Z,28.44
2018-09-11T12:38:29.818Z,26.73
2018-09-11T12:40:58.743Z,25.58
2018-09-11T12:43:27.478Z,26.84
2018-09-11T12:45:56.639Z,27.54
2018-09-11T12:48:25.367Z,26.06
2018-09-11T12:50:54.086Z,26.28
2018-09-11T12:53:22.847Z,26.29
2018-09-11T12:55:51.579Z,25.89
2018-09-11T12:58:20.454Z,24.79
2018-09-11T13:00:49.241Z,24.64
2018-09-11T13:03:17.998Z,25.69
2018-09-11T13:05:46.749Z,24.89
2018-09-11T13:08:15.418Z,24.74
2018-09-11T13:10:44.335Z,23.91
2018-09-11T13:13:13.049Z,24.25
2018-09-11T13:15:41.709Z,24.67
2018-09-11T13:18:10.407Z,24.82
2018-09-11T13:20:39.157Z,24.30
2018-09-11T13:23:08.181Z,23.69
2018-09-11T13:25:37.105Z,22.92
2018-09-11T13:28:06.150Z,22.56
2018-09-11T13:30:34.922Z,23.39
2018-09-11T13:33:03.905Z,23.35
2018-09-11T13:35:32.797Z,21.82
2018-09-11T13:38:01.643Z,22.14
2018-09-11T13:40:30.421Z,23.57
2018-09-11T13:42:59.370Z,22.55
2018-09-11T13:45:28.290Z,22.86
2018-09-11T13:47:57.399Z,23.34
2018-09-11T13:50:26.034Z,23.05
2018-09-11T13:52:54.984Z,22.71
2018-09-11T13:55:23.698Z,22.31
2018-09-11T13:57:52.379Z,21.79
2018-09-11T14:00:21.513Z,21.68
2018-09-11T14:02:50.264Z,23.54
2018-09-11T14:05:18.986Z,21.81
2018-09-11T14:07:47.833Z,21.82
2018-09-11T14:10:16.529Z,23.14
2018-09-11T14:12:45.207Z,24.88
2018-09-11T14:15:13.953Z,25.12
2018-09-11T14:17:42.686Z,26.89
2018-09-11T14:20:12.039Z,27.51
2018-09-11T14:22:41.209Z,28.32
2018-09-11T14:25:09.982Z,28.19
2018-09-11T14:27:38.638Z,29.15
2018-09-11T14:30:07.378Z,28.54
2018-09-11T14:32:36.354Z,28.29
2018-09-11T14:35:05.240Z,28.30
2018-09-11T14:37:34.126Z,29.30
2018-09-11T14:40:03.348Z,28.25
2018-09-11T14:42:31.995Z,28.27
2018-09-11T14:45:00.701Z,29.74
2018-09-11T14:47:33.514Z,28.55
2018-09-11T14:50:02.326Z,28.46
2018-09-11T14:52:31.084Z,31.02
2018-09-11T14:54:59.734Z,29.99
2018-09-11T14:57:28.812Z,29.80
2018-09-11T14:59:57.733Z,29.75
2018-09-11T15:02:26.445Z,30.39
2018-09-11T15:04:55.734Z,29.70
2018-09-11T15:07:24.842Z,29.57
2018-09-11T15:09:53.847Z,29.55
2018-09-11T15:12:22.565Z,29.97
2018-09-11T15:14:51.426Z,28.26
2018-09-11T15:17:20.105Z,30.30
2018-09-11T15:19:48.801Z,30.16
2018-09-11T15:22:17.489Z,30.33
2018-09-11T15:24:46.290Z,30.85
2018-09-11T15:27:15.039Z,30.95
2018-09-11T15:29:43.981Z,30.67
2018-09-11T15:32:12.707Z,30.49
2018-09-11T15:34:41.593Z,30.92
2018-09-11T15:37:10.264Z,31.88
2018-09-11T15:39:38.981Z,30.28
2018-09-11T15:42:07.660Z,30.18
2018-09-11T15:44:36.342Z,30.00
2018-09-11T15:47:05.033Z,29.31
2018-09-11T15:49:33.758Z,30.91
2018-09-11T15:52:02.430Z,30.64
2018-09-11T15:54:31.374Z,31.08
2018-09-11T15:57:00.139Z,30.22
2018-09-11T15:59:28.861Z,30.40
2018-09-11T16:01:57.599Z,31.26
2018-09-11T16:04:26.995Z,31.20
2018-09-11T16:06:55.786Z,30.88
2018-09-11T16:09:24.563Z,31.05
2018-09-11T16:11:53.259Z,30.46
2018-09-11T16:14:22.027Z,31.14
2018-09-11T16:16:51.258Z,30.87
2018-09-11T16:19:20.101Z,30.86
2018-09-11T16:21:49.307Z,30.27
2018-09-11T16:24:18.062Z,31.18
2018-09-11T16:26:46.766Z,31.25
2018-09-11T16:29:15.597Z,31.37
2018-09-11T16:31:44.280Z,30.08
2018-09-11T16:34:13.150Z,31.08
2018-09-11T16:36:41.972Z,30.84
2018-09-11T16:39:12.500Z,30.98
2018-09-11T16:41:41.562Z,31.85
2018-09-11T16:44:10.317Z,31.75
2018-09-11T16:46:39.482Z,32.18
2018-09-11T16:49:08.891Z,32.35
2018-09-11T16:51:38.013Z,32.99
2018-09-11T16:54:07.076Z,32.99
2018-09-11T16:56:35.842Z,33.33
2018-09-11T16:59:04.958Z,33.04
2018-09-11T17:01:33.659Z,33.92
2018-09-11T17:04:02.307Z,33.39
2018-09-11T17:06:31.012Z,33.90
2018-09-11T17:08:59.659Z,34.45
2018-09-11T17:11:28.491Z,34.48
2018-09-11T17:13:57.231Z,34.22
2018-09-11T17:16:25.925Z,34.42
2018-09-11T17:18:54.681Z,35.05
2018-09-11T17:21:23.402Z,35.00
2018-09-11T17:23:52.180Z,35.09
2018-09-11T17:26:20.900Z,35.65
2018-09-11T17:28:49.938Z,35.87
2018-09-11T17:31:18.881Z,35.77
2018-09-11T17:33:47.991Z,36.18
2018-09-11T17:36:16.766Z,36.02
2018-09-11T17:38:45.581Z,36.04
2018-09-11T17:41:14.375Z,36.16
2018-09-11T17:43:43.027Z,36.29
2018-09-11T17:46:11.720Z,36.61
2018-09-11T17:48:40.466Z,36.21
2018-09-11T17:51:09.133Z,36.89
2018-09-11T17:53:37.959Z,37.07
2018-09-11T17:56:07.058Z,37.35
2018-09-11T17:58:35.768Z,37.32
2018-09-11T18:01:04.515Z,37.92
2018-09-11T18:03:33.237Z,37.86
2018-09-11T18:06:02.156Z,37.89
2018-09-11T18:08:30.917Z,38.28
2018-09-11T18:10:59.640Z,38.08
2018-09-11T18:13:28.327Z,38.34
2018-09-11T18:15:57.091Z,38.24
2018-09-11T18:18:26.027Z,38.88
2018-09-11T18:20:55.367Z,38.64
2018-09-11T18:23:24.274Z,39.11
2018-09-11T18:25:53.451Z,39.31
2018-09-11T18:28:22.154Z,39.69
2018-09-11T18:30:51.286Z,39.96
2018-09-11T18:33:20.076Z,39.95
2018-09-11T18:35:48.818Z,40.70
2018-09-11T18:38:17.554Z,41.37
2018-09-11T18:40:46.438Z,41.56
2018-09-11T18:43:15.208Z,42.15
2018-09-11T18:45:43.902Z,42.46
2018-09-11T18:48:12.902Z,42.53
2018-09-11T18:50:41.596Z,42.87
2018-09-11T18:53:10.253Z,42.82
2018-09-11T18:55:38.950Z,43.28
2018-09-11T18:58:07.730Z,43.30
2018-09-11T19:00:36.539Z,43.88
2018-09-11T19:03:05.273Z,43.76
2018-09-11T19:05:33.934Z,44.04
2018-09-11T19:08:02.809Z,44.05
2018-09-11T19:10:31.890Z,44.06
2018-09-11T19:13:00.654Z,44.34
2018-09-11T19:15:29.782Z,44.78
2018-09-11T19:17:58.578Z,45.77
2018-09-11T19:20:27.531Z,45.78
2018-09-11T19:22:56.241Z,46.28
2018-09-11T19:25:24.963Z,46.56
2018-09-11T19:27:55.401Z,46.71
2018-09-11T19:30:24.067Z,47.07
2018-09-11T19:32:52.801Z,47.19
2018-09-11T19:35:21.844Z,46.94
2018-09-11T19:37:50.631Z,46.95
2018-09-11T19:40:19.391Z,47.44
2018-09-11T19:42:48.138Z,47.62
2018-09-11T19:45:16.867Z,47.73
2018-09-11T19:47:45.578Z,48.07
2018-09-11T19:50:14.447Z,48.22
2018-09-11T19:52:43.059Z,48.60
2018-09-11T19:55:11.865Z,49.10
2018-09-11T19:57:40.653Z,49.31
2018-09-11T20:00:09.389Z,49.86
2018-09-11T20:02:38.145Z,50.33
2018-09-11T20:05:07.425Z,51.44
2018-09-11T20:07:36.186Z,52.32
2018-09-11T20:10:05.072Z,52.57
2018-09-11T20:12:33.991Z,53.22
2018-09-11T20:15:02.703Z,54.20
2018-09-11T20:17:31.418Z,53.61
2018-09-11T20:20:00.272Z,53.50
2018-09-11T20:22:29.012Z,53.03
2018-09-11T20:24:57.900Z,52.64
2018-09-11T20:27:26.709Z,52.28
2018-09-11T20:29:55.524Z,52.62
2018-09-11T20:32:24.505Z,52.83
2018-09-11T20:34:53.266Z,52.57
2018-09-11T20:37:22.280Z,53.91
2018-09-11T20:39:50.972Z,52.90
2018-09-11T20:42:19.674Z,53.36
2018-09-11T20:44:48.562Z,53.44
2018-09-11T20:47:17.405Z,53.73
2018-09-11T20:49:46.151Z,53.53
2018-09-11T20:52:15.121Z,53.43
2018-09-11T20:54:43.978Z,52.77
2018-09-11T20:57:12.675Z,52.83
2018-09-11T20:59:42.269Z,52.93
2018-09-11T21:02:11.167Z,52.98
2018-09-11T21:04:40.201Z,53.04
2018-09-11T21:07:08.910Z,53.37
2018-09-11T21:09:37.721Z,53.85
2018-09-11T21:12:06.391Z,53.35
2018-09-11T21:14:35.114Z,54.93
2018-09-11T21:17:04.017Z,55.67
2018-09-11T21:19:32.685Z,56.12
2018-09-11T21:22:02.013Z,56.81
2018-09-11T21:24:30.773Z,57.20
2018-09-11T21:26:59.450Z,57.60
2018-09-11T21:29:28.149Z,58.46
2018-09-11T21:31:56.823Z,58.23
2018-09-11T21:34:25.639Z,58.90
2018-09-11T21:36:54.452Z,59.34
2018-09-11T21:39:23.198Z,59.20
2018-09-11T21:41:51.958Z,59.07
2018-09-11T21:44:20.664Z,58.73
2018-09-11T21:46:49.385Z,59.24
2018-09-11T21:49:18.033Z,59.41
2018-09-11T21:51:51.943Z,59.39
2018-09-11T21:54:20.753Z,59.11
2018-09-11T21:56:49.426Z,59.23
2018-09-11T21:59:18.096Z,59.13
2018-09-11T22:01:54.287Z,58.85
2018-09-11T22:04:23.583Z,59.71
2018-09-11T22:06:52.276Z,59.96
2018-09-11T22:09:20.928Z,60.66
2018-09-11T22:11:49.697Z,61.32
2018-09-11T22:14:18.565Z,62.19
2018-09-11T22:16:47.310Z,62.21
2018-09-11T22:19:16.164Z,62.27
2018-09-11T22:21:44.801Z,63.01
2018-09-11T22:24:13.473Z,63.08
2018-09-11T22:26:42.354Z,63.18
2018-09-11T22:29:11.099Z,63.17
2018-09-11T22:31:39.845Z,63.39
2018-09-11T22:34:08.541Z,63.20
2018-09-11T22:36:37.349Z,63.71
2018-09-11T22:39:08.251Z,63.47
2018-09-11T22:41:36.981Z,63.14
2018-09-11T22:44:05.654Z,63.50
2018-09-11T22:46:34.565Z,63.91
2018-09-11T22:49:03.325Z,63.60
2018-09-11T22:51:32.135Z,63.43
2018-09-11T22:54:00.925Z,63.82
2018-09-11T22:56:29.573Z,63.72
2018-09-11T22:58:58.293Z,64.07
2018-09-11T23:01:26.930Z,64.39
2018-09-11T23:03:55.674Z,64.41
2018-09-11T23:06:24.423Z,64.56
2018-09-11T23:08:53.305Z,64.64
2018-09-11T23:11:22.146Z,64.99
2018-09-11T23:13:50.801Z,64.62
2018-09-11T23:16:19.455Z,64.89
2018-09-11T23:18:48.265Z,64.43
2018-09-11T23:21:16.889Z,64.34
2018-09-11T23:23:46.082Z,64.97
2018-09-11T23:26:14.777Z,65.05
2018-09-11T23:28:43.634Z,65.44
2018-09-11T23:31:12.334Z,65.41
2018-09-11T23:33:40.989Z,65.73
2018-09-11T23:36:09.825Z,65.74
2018-09-11T23:38:38.531Z,65.95
2018-09-11T23:41:08.875Z,65.60
2018-09-11T23:43:38.477Z,65.88
2018-09-11T23:46:08.018Z,66.02
2018-09-11T23:48:36.801Z,66.25
2018-09-11T23:51:06.257Z,65.91
2018-09-11T23:53:35.699Z,66.49
2018-09-11T23:56:05.538Z,66.82
2018-09-11T23:58:34.941Z,67.01
